Time;durP1;ratioP1;P1;durP2;ratioP2;P2;SDS_P1;SDS_P2;PMS_P1;PMS_P2;Temp;Humidity;BMP_temperature;BMP_pressure;BME280_temperature;BME280_humidity;BME280_pressure;Samples;Min_cycle;Max_cycle;Signal;HPM_P1;HPM_P2
2023/01/21 00:01:41;;;;;;;0.30;0.30;;;;;;;;;;4998199;28;20467;-73
2023/01/21 00:04:06;;;;;;;0.25;0.25;;;;;;;;;;5006292;28;20522;-72
2023/01/21 00:06:31;;;;;;;0.30;0.30;;;;;;;;;;5007086;28;20022;-72
2023/01/21 00:08:58;;;;;;;0.30;0.30;;;;;;;;;;5006601;28;20527;-72
2023/01/21 00:11:23;;;;;;;0.25;0.25;;;;;;;;;;5001785;28;20033;-72
2023/01/21 00:13:48;;;;;;;0.30;0.30;;;;;;;;;;5006454;28;20097;-72
2023/01/21 00:16:14;;;;;;;0.30;0.30;;;;;;;;;;5005764;28;20519;-72
2023/01/21 00:18:39;;;;;;;0.30;0.30;;;;;;;;;;5001078;28;20492;-72
2023/01/21 00:21:04;;;;;;;0.30;0.30;;;;;;;;;;5001999;28;20020;-72
2023/01/21 00:23:29;;;;;;;0.20;0.20;;;;;;;;;;5002926;28;20030;-73
2023/01/21 00:25:58;;;;;;;0.30;0.30;;;;;;;;;;4995015;28;20029;-72
2023/01/21 00:28:26;;;;;;;0.30;0.30;;;;;;;;;;5020023;28;20436;-72
2023/01/21 00:30:55;;;;;;;0.30;0.30;;;;;;;;;;4998862;28;20331;-73
2023/01/21 00:33:20;;;;;;;0.25;0.25;;;;;;;;;;5000516;28;20029;-72
2023/01/21 00:35:45;;;;;;;0.30;0.30;;;;;;;;;;5000851;28;20069;-72
2023/01/21 00:38:10;;;;;;;0.30;0.30;;;;;;;;;;5008624;28;20263;-72
2023/01/21 00:40:35;;;;;;;0.30;0.30;;;;;;;;;;4998260;28;20026;-72
2023/01/21 00:43:00;;;;;;;0.27;0.27;;;;;;;;;;5002728;28;20311;-72
2023/01/21 00:45:25;;;;;;;0.30;0.30;;;;;;;;;;5012767;28;20282;-72
2023/01/21 00:47:51;;;;;;;0.30;0.30;;;;;;;;;;5009891;28;20267;-72
2023/01/21 00:50:16;;;;;;;0.30;0.30;;;;;;;;;;4999070;28;20132;-72
2023/01/21 00:52:41;;;;;;;0.30;0.30;;;;;;;;;;5003013;28;20034;-72
2023/01/21 00:55:06;;;;;;;0.20;0.20;;;;;;;;;;5006489;28;20516;-73
2023/01/21 00:57:32;;;;;;;0.20;0.20;;;;;;;;;;5004830;28;20025;-72
2023/01/21 00:59:57;;;;;;;0.30;0.30;;;;;;;;;;5005052;28;20156;-72
2023/01/21 01:02:22;;;;;;;0.30;0.30;;;;;;;;;;4999454;28;20034;-72
2023/01/21 01:04:47;;;;;;;0.30;0.30;;;;;;;;;;5005889;28;20034;-72
2023/01/21 01:07:12;;;;;;;0.30;0.30;;;;;;;;;;5004384;28;20271;-72
2023/01/21 01:09:37;;;;;;;0.20;0.20;;;;;;;;;;5002705;28;20065;-73
2023/01/21 01:12:03;;;;;;;0.30;0.30;;;;;;;;;;5006649;28;20033;-73
2023/01/21 01:14:28;;;;;;;0.30;0.30;;;;;;;;;;4996453;28;20049;-73
2023/01/21 01:16:53;;;;;;;0.30;0.30;;;;;;;;;;5007243;28;20032;-73
2023/01/21 01:19:19;;;;;;;0.30;0.30;;;;;;;;;;5007447;28;20128;-72
2023/01/21 01:21:44;;;;;;;0.20;0.20;;;;;;;;;;4993908;28;20084;-73
2023/01/21 01:24:09;;;;;;;0.30;0.30;;;;;;;;;;4999865;28;20101;-72
2023/01/21 01:26:35;;;;;;;0.30;0.30;;;;;;;;;;5004093;28;20149;-73
2023/01/21 01:29:00;;;;;;;0.30;0.30;;;;;;;;;;5005286;28;20026;-72
2023/01/21 01:31:26;;;;;;;0.30;0.30;;;;;;;;;;5005632;28;20069;-73
2023/01/21 01:33:51;;;;;;;0.32;0.32;;;;;;;;;;5004352;28;20248;-73
2023/01/21 01:36:18;;;;;;;0.30;0.30;;;;;;;;;;5002952;28;20087;-73
2023/01/21 01:38:44;;;;;;;0.30;0.30;;;;;;;;;;5008697;28;20109;-73
2023/01/21 01:41:13;;;;;;;0.30;0.30;;;;;;;;;;5004796;28;20137;-73
2023/01/21 01:43:49;;;;;;;0.30;0.30;;;;;;;;;;5002129;28;20120;-73
2023/01/21 01:46:15;;;;;;;0.30;0.30;;;;;;;;;;5000718;28;20025;-73
2023/01/21 01:48:41;;;;;;;0.30;0.30;;;;;;;;;;5002766;28;20030;-73
2023/01/21 01:51:06;;;;;;;0.30;0.30;;;;;;;;;;5001889;28;20432;-73
2023/01/21 01:53:32;;;;;;;0.30;0.30;;;;;;;;;;5004098;28;20556;-73
2023/01/21 01:55:57;;;;;;;0.30;0.30;;;;;;;;;;5007997;28;20045;-73
2023/01/21 01:58:23;;;;;;;0.30;0.30;;;;;;;;;;5003809;28;20346;-73
2023/01/21 02:00:48;;;;;;;0.30;0.30;;;;;;;;;;5000850;28;20473;-73
2023/01/21 02:05:57;;;;;;;0.30;0.30;;;;;;;;;;5008910;28;20404;-73
2023/01/21 02:08:23;;;;;;;0.30;0.30;;;;;;;;;;5002429;28;20481;-73
2023/01/21 02:10:48;;;;;;;0.30;0.30;;;;;;;;;;5003867;28;20025;-73
2023/01/21 02:13:14;;;;;;;0.20;0.20;;;;;;;;;;5001689;28;20695;-74
2023/01/21 02:15:42;;;;;;;0.20;0.20;;;;;;;;;;5007449;28;20022;-73
2023/01/21 02:18:28;;;;;;;0.30;0.30;;;;;;;;;;5003171;28;20395;-73
2023/01/21 02:21:07;;;;;;;0.30;0.30;;;;;;;;;;4998084;28;20077;-74
2023/01/21 02:23:38;;;;;;;0.30;0.30;;;;;;;;;;5006425;28;20025;-73
2023/01/21 02:26:11;;;;;;;0.30;0.30;;;;;;;;;;5000475;28;20111;-74
2023/01/21 02:28:45;;;;;;;0.30;0.30;;;;;;;;;;5003481;28;20108;-74
2023/01/21 02:31:29;;;;;;;0.30;0.30;;;;;;;;;;5002992;28;20491;-74
2023/01/21 02:34:12;;;;;;;0.30;0.30;;;;;;;;;;5002888;28;20022;-74
2023/01/21 02:36:58;;;;;;;0.30;0.30;;;;;;;;;;5002789;28;20709;-74
2023/01/21 02:39:53;;;;;;;0.30;0.30;;;;;;;;;;4999387;28;20443;-74
2023/01/21 02:42:41;;;;;;;0.30;0.30;;;;;;;;;;4996581;28;20039;-74
2023/01/21 02:45:13;;;;;;;0.30;0.30;;;;;;;;;;4995174;28;20022;-74
2023/01/21 02:47:48;;;;;;;0.30;0.30;;;;;;;;;;5005950;28;20493;-74
2023/01/21 02:50:19;;;;;;;0.30;0.30;;;;;;;;;;4997533;28;20493;-74
2023/01/21 02:52:44;;;;;;;0.30;0.30;;;;;;;;;;5002873;28;20025;-74
2023/01/21 02:55:13;;;;;;;0.30;0.30;;;;;;;;;;4996888;28;20781;-74
2023/01/21 02:57:44;;;;;;;0.30;0.30;;;;;;;;;;4999311;28;20014;-74
2023/01/21 03:00:30;;;;;;;0.30;0.30;;;;;;;;;;5003899;28;20028;-74
2023/01/21 03:03:20;;;;;;;0.35;0.35;;;;;;;;;;4997931;28;20437;-74
2023/01/21 03:05:56;;;;;;;0.20;0.20;;;;;;;;;;5009501;28;20491;-74
2023/01/21 03:08:26;;;;;;;0.30;0.30;;;;;;;;;;5002514;28;20546;-74
2023/01/21 03:10:58;;;;;;;0.30;0.30;;;;;;;;;;4999478;28;20420;-74
2023/01/21 03:18:58;;;;;;;0.30;0.30;;;;;;;;;;5002829;28;20025;-75
2023/01/21 03:21:25;;;;;;;0.30;0.30;;;;;;;;;;4995921;28;20052;-75
2023/01/21 03:23:51;;;;;;;0.30;0.30;;;;;;;;;;5002943;28;20037;-75
2023/01/21 03:26:19;;;;;;;0.30;0.30;;;;;;;;;;5001375;28;20029;-75
2023/01/21 03:28:45;;;;;;;0.30;0.30;;;;;;;;;;5003185;28;20033;-75
2023/01/21 03:31:13;;;;;;;0.20;0.20;;;;;;;;;;4999327;28;20473;-75
2023/01/21 03:33:40;;;;;;;0.30;0.30;;;;;;;;;;4997809;28;20022;-75
2023/01/21 03:36:10;;;;;;;0.30;0.30;;;;;;;;;;5002067;28;20040;-75
2023/01/21 03:38:40;;;;;;;0.30;0.30;;;;;;;;;;5011935;28;20076;-75
2023/01/21 03:41:12;;;;;;;0.30;0.30;;;;;;;;;;4999879;28;20041;-75
2023/01/21 03:43:37;;;;;;;0.30;0.30;;;;;;;;;;5001765;28;20029;-75
2023/01/21 03:46:11;;;;;;;0.30;0.30;;;;;;;;;;5003798;28;20071;-75
2023/01/21 03:48:36;;;;;;;0.30;0.30;;;;;;;;;;5003806;28;20026;-75
2023/01/21 03:51:05;;;;;;;0.22;0.22;;;;;;;;;;5000683;28;20036;-75
2023/01/21 03:53:30;;;;;;;0.30;0.30;;;;;;;;;;5003078;28;20291;-75
2023/01/21 03:55:55;;;;;;;0.20;0.20;;;;;;;;;;5003516;28;20083;-75
2023/01/21 03:58:20;;;;;;;0.30;0.30;;;;;;;;;;4993754;28;20088;-75
2023/01/21 04:00:48;;;;;;;0.25;0.25;;;;;;;;;;5004939;28;20057;-75
2023/01/21 04:03:13;;;;;;;0.20;0.20;;;;;;;;;;5001940;28;20021;-75
2023/01/21 04:05:38;;;;;;;0.30;0.30;;;;;;;;;;4995761;28;20037;-75
2023/01/21 04:08:03;;;;;;;0.25;0.25;;;;;;;;;;5002702;28;20439;-75
2023/01/21 04:10:28;;;;;;;0.30;0.30;;;;;;;;;;4999147;28;20409;-75
2023/01/21 04:12:53;;;;;;;0.30;0.30;;;;;;;;;;4998458;28;20033;-75
2023/01/21 04:15:19;;;;;;;0.30;0.30;;;;;;;;;;5006880;28;20095;-75
2023/01/21 04:17:44;;;;;;;0.20;0.20;;;;;;;;;;5002237;28;20279;-75
2023/01/21 04:20:09;;;;;;;0.30;0.30;;;;;;;;;;5000783;28;20590;-75
2023/01/21 04:22:34;;;;;;;0.30;0.30;;;;;;;;;;5001446;28;20483;-75
2023/01/21 04:25:00;;;;;;;0.30;0.30;;;;;;;;;;5001264;28;20281;-75
2023/01/21 04:27:25;;;;;;;0.30;0.30;;;;;;;;;;4994241;28;20030;-75
2023/01/21 04:29:50;;;;;;;0.30;0.30;;;;;;;;;;5000311;28;20023;-75
2023/01/21 04:32:15;;;;;;;0.20;0.20;;;;;;;;;;4999203;28;20083;-75
2023/01/21 04:34:40;;;;;;;0.30;0.30;;;;;;;;;;4998864;28;20034;-75
2023/01/21 04:37:06;;;;;;;0.30;0.30;;;;;;;;;;5004750;28;20104;-75
2023/01/21 04:39:31;;;;;;;0.30;0.30;;;;;;;;;;4998052;28;20659;-75
2023/01/21 04:41:56;;;;;;;0.30;0.30;;;;;;;;;;5001998;28;20033;-75
2023/01/21 04:44:21;;;;;;;0.30;0.30;;;;;;;;;;5006918;28;20598;-75
2023/01/21 04:46:47;;;;;;;0.30;0.30;;;;;;;;;;5000021;28;20029;-75
2023/01/21 04:49:12;;;;;;;0.30;0.30;;;;;;;;;;5005826;28;20026;-75
2023/01/21 04:51:37;;;;;;;0.20;0.20;;;;;;;;;;5001018;28;20029;-75
2023/01/21 04:54:02;;;;;;;0.20;0.20;;;;;;;;;;5010028;28;20380;-74
2023/01/21 04:56:27;;;;;;;0.22;0.22;;;;;;;;;;5008121;28;20025;-75
2023/01/21 04:58:53;;;;;;;0.30;0.30;;;;;;;;;;5002290;28;20028;-75
2023/01/21 05:01:18;;;;;;;0.30;0.30;;;;;;;;;;4997517;28;20026;-75
2023/01/21 05:03:43;;;;;;;0.30;0.30;;;;;;;;;;5001150;28;20384;-75
2023/01/21 05:06:08;;;;;;;0.30;0.30;;;;;;;;;;5003579;28;20026;-75
2023/01/21 05:08:33;;;;;;;0.30;0.30;;;;;;;;;;5002186;28;20127;-75
2023/01/21 05:10:58;;;;;;;0.30;0.30;;;;;;;;;;5002385;28;20026;-74
2023/01/21 05:13:24;;;;;;;0.30;0.30;;;;;;;;;;5004079;28;20072;-75
2023/01/21 05:15:49;;;;;;;0.30;0.30;;;;;;;;;;5008501;28;20468;-75
2023/01/21 05:18:14;;;;;;;0.30;0.30;;;;;;;;;;5002144;28;20045;-75
2023/01/21 05:20:39;;;;;;;0.30;0.30;;;;;;;;;;5008048;28;20021;-75
2023/01/21 05:23:04;;;;;;;0.30;0.30;;;;;;;;;;5002117;28;20049;-75
2023/01/21 05:25:30;;;;;;;0.20;0.20;;;;;;;;;;5005389;28;20458;-76
2023/01/21 05:27:55;;;;;;;0.30;0.30;;;;;;;;;;5010186;28;20018;-75
2023/01/21 05:30:20;;;;;;;0.30;0.30;;;;;;;;;;5006631;28;20025;-75
2023/01/21 05:32:49;;;;;;;0.20;0.20;;;;;;;;;;5004327;28;20034;-75
2023/01/21 05:35:17;;;;;;;0.28;0.28;;;;;;;;;;5007389;28;20037;-75
2023/01/21 05:37:43;;;;;;;0.30;0.30;;;;;;;;;;5009452;28;20029;-75
2023/01/21 05:40:08;;;;;;;0.30;0.30;;;;;;;;;;5010409;28;20021;-75
2023/01/21 05:42:33;;;;;;;0.30;0.30;;;;;;;;;;5002829;28;20576;-75
2023/01/21 05:45:00;;;;;;;0.30;0.30;;;;;;;;;;5003455;28;22039;-75
2023/01/21 05:47:25;;;;;;;0.30;0.30;;;;;;;;;;5006947;28;20029;-75
2023/01/21 05:49:50;;;;;;;0.30;0.30;;;;;;;;;;5003514;28;20013;-75
2023/01/21 05:52:15;;;;;;;0.30;0.30;;;;;;;;;;5002091;28;20072;-75
2023/01/21 05:54:40;;;;;;;0.30;0.30;;;;;;;;;;5005357;28;20078;-75
2023/01/21 05:57:06;;;;;;;0.30;0.30;;;;;;;;;;5002739;28;20029;-75
2023/01/21 05:59:31;;;;;;;0.30;0.30;;;;;;;;;;5007231;28;20368;-75
2023/01/21 06:01:56;;;;;;;0.25;0.25;;;;;;;;;;5002500;28;20022;-75
2023/01/21 06:04:27;;;;;;;0.30;0.30;;;;;;;;;;4999019;28;20803;-75
2023/01/21 06:06:52;;;;;;;0.30;0.30;;;;;;;;;;5004054;28;20449;-75
2023/01/21 06:09:17;;;;;;;0.20;0.20;;;;;;;;;;4998389;28;20361;-75
2023/01/21 06:11:42;;;;;;;0.30;0.30;;;;;;;;;;4997644;28;20018;-75
2023/01/21 06:14:07;;;;;;;0.30;0.30;;;;;;;;;;5005344;28;20034;-75
2023/01/21 06:16:33;;;;;;;0.30;0.30;;;;;;;;;;5000696;28;20436;-75
2023/01/21 06:18:58;;;;;;;0.30;0.30;;;;;;;;;;5005199;28;20354;-75
2023/01/21 06:21:23;;;;;;;0.30;0.30;;;;;;;;;;4999057;28;20100;-76
2023/01/21 06:23:48;;;;;;;0.30;0.30;;;;;;;;;;5002492;28;20381;-76
2023/01/21 06:26:13;;;;;;;0.30;0.30;;;;;;;;;;5010642;28;20040;-75
2023/01/21 06:28:38;;;;;;;0.30;0.30;;;;;;;;;;5002323;28;20030;-75
2023/01/21 06:31:04;;;;;;;0.40;0.40;;;;;;;;;;4996331;28;20022;-75
2023/01/21 06:33:29;;;;;;;0.40;0.40;;;;;;;;;;5001573;28;20034;-75
2023/01/21 06:35:54;;;;;;;0.30;0.30;;;;;;;;;;4995422;28;20022;-75
2023/01/21 06:38:19;;;;;;;0.30;0.30;;;;;;;;;;5005759;28;20034;-75
2023/01/21 06:40:45;;;;;;;0.30;0.30;;;;;;;;;;4997557;28;20520;-76
2023/01/21 06:43:11;;;;;;;0.30;0.30;;;;;;;;;;5003410;28;20036;-75
2023/01/21 06:45:36;;;;;;;0.30;0.30;;;;;;;;;;5003596;28;20018;-75
2023/01/21 06:48:01;;;;;;;0.30;0.30;;;;;;;;;;5003808;28;20087;-76
2023/01/21 06:50:26;;;;;;;0.30;0.30;;;;;;;;;;4996828;28;20037;-75
2023/01/21 06:52:51;;;;;;;0.30;0.30;;;;;;;;;;5000079;28;20374;-75
2023/01/21 06:55:16;;;;;;;0.30;0.30;;;;;;;;;;5012212;28;20023;-75
2023/01/21 06:57:42;;;;;;;0.32;0.32;;;;;;;;;;5001385;28;20529;-75
2023/01/21 07:00:08;;;;;;;0.30;0.30;;;;;;;;;;5009985;28;20025;-75
2023/01/21 07:02:33;;;;;;;0.30;0.30;;;;;;;;;;4996330;28;20021;-75
2023/01/21 07:04:58;;;;;;;0.30;0.30;;;;;;;;;;5005502;28;20056;-75
2023/01/21 07:07:24;;;;;;;0.30;0.30;;;;;;;;;;5003041;28;20495;-75
2023/01/21 07:09:49;;;;;;;0.30;0.30;;;;;;;;;;5005341;28;20029;-75
2023/01/21 07:12:14;;;;;;;0.30;0.30;;;;;;;;;;5001013;28;20516;-75
2023/01/21 07:14:39;;;;;;;0.30;0.30;;;;;;;;;;5006490;28;20026;-75
2023/01/21 07:17:04;;;;;;;0.30;0.30;;;;;;;;;;5004679;28;20077;-75
2023/01/21 07:19:29;;;;;;;0.38;0.38;;;;;;;;;;5005097;28;20488;-75
2023/01/21 07:21:55;;;;;;;0.30;0.30;;;;;;;;;;5002060;28;20116;-75
2023/01/21 07:24:20;;;;;;;0.30;0.30;;;;;;;;;;4999654;28;20025;-75
2023/01/21 07:26:46;;;;;;;0.30;0.30;;;;;;;;;;4997910;28;20469;-75
2023/01/21 07:29:11;;;;;;;0.30;0.30;;;;;;;;;;4995849;28;20056;-75
2023/01/21 07:31:36;;;;;;;0.40;0.40;;;;;;;;;;4992418;28;20433;-75
2023/01/21 07:34:02;;;;;;;0.30;0.30;;;;;;;;;;4994091;28;20041;-76
2023/01/21 07:36:27;;;;;;;0.40;0.40;;;;;;;;;;4993829;28;20029;-75
2023/01/21 07:38:52;;;;;;;0.35;0.35;;;;;;;;;;4993823;28;20479;-75
2023/01/21 07:41:18;;;;;;;0.40;0.40;;;;;;;;;;4991925;28;20075;-75
2023/01/21 07:43:46;;;;;;;0.30;0.30;;;;;;;;;;4994366;28;20034;-75
2023/01/21 07:46:11;;;;;;;0.30;0.30;;;;;;;;;;4994147;28;20022;-75
2023/01/21 07:48:36;;;;;;;0.30;0.30;;;;;;;;;;4993943;28;20029;-76
2023/01/21 07:51:02;;;;;;;0.40;0.40;;;;;;;;;;4993400;28;20045;-76
2023/01/21 07:53:27;;;;;;;0.30;0.30;;;;;;;;;;4992373;28;20026;-75
2023/01/21 07:55:52;;;;;;;0.30;0.30;;;;;;;;;;4987717;28;20033;-76
2023/01/21 07:58:17;;;;;;;0.38;0.38;;;;;;;;;;4994089;28;20401;-75
2023/01/21 08:00:43;;;;;;;0.30;0.30;;;;;;;;;;5001486;28;20054;-75
2023/01/21 08:03:08;;;;;;;0.40;0.40;;;;;;;;;;4982870;28;20026;-76
2023/01/21 08:05:33;;;;;;;0.30;0.30;;;;;;;;;;4995675;28;20836;-75
2023/01/21 08:07:58;;;;;;;0.30;0.30;;;;;;;;;;4994830;28;20061;-75
2023/01/21 08:10:24;;;;;;;0.38;0.38;;;;;;;;;;4996567;28;20029;-75
2023/01/21 08:12:49;;;;;;;0.30;0.30;;;;;;;;;;4990463;28;20030;-75
2023/01/21 08:15:14;;;;;;;0.30;0.30;;;;;;;;;;4994560;28;20788;-75
2023/01/21 08:17:43;;;;;;;0.30;0.30;;;;;;;;;;5000587;28;20029;-75
2023/01/21 08:20:09;;;;;;;0.30;0.30;;;;;;;;;;4989117;28;20031;-76
2023/01/21 08:22:34;;;;;;;0.40;0.40;;;;;;;;;;4994264;28;20535;-75
2023/01/21 08:24:59;;;;;;;0.40;0.40;;;;;;;;;;4995232;28;20057;-74
2023/01/21 08:27:25;;;;;;;0.40;0.40;;;;;;;;;;5000183;28;20066;-75
2023/01/21 08:29:50;;;;;;;0.30;0.30;;;;;;;;;;4997655;28;20504;-75
2023/01/21 08:32:15;;;;;;;0.40;0.40;;;;;;;;;;5000919;28;20032;-76
2023/01/21 08:34:40;;;;;;;0.30;0.30;;;;;;;;;;5003248;28;20415;-76
2023/01/21 08:37:05;;;;;;;0.40;0.40;;;;;;;;;;5000425;28;20350;-75
2023/01/21 08:39:31;;;;;;;0.30;0.30;;;;;;;;;;5012615;28;20021;-75
2023/01/21 08:41:56;;;;;;;0.30;0.30;;;;;;;;;;5003165;28;20424;-75
2023/01/21 08:44:21;;;;;;;0.40;0.40;;;;;;;;;;5001981;28;20026;-75
2023/01/21 08:46:46;;;;;;;0.40;0.40;;;;;;;;;;5001840;28;20113;-75
2023/01/21 08:49:11;;;;;;;0.30;0.30;;;;;;;;;;5002592;28;20026;-75
2023/01/21 08:51:37;;;;;;;0.40;0.40;;;;;;;;;;4999240;28;20026;-75
2023/01/21 08:54:03;;;;;;;0.40;0.40;;;;;;;;;;4999560;28;20648;-74
2023/01/21 08:56:28;;;;;;;0.40;0.40;;;;;;;;;;5000458;28;20103;-75
2023/01/21 08:58:55;;;;;;;0.40;0.40;;;;;;;;;;4999841;28;20812;-75
2023/01/21 09:01:20;;;;;;;0.40;0.40;;;;;;;;;;5002646;28;20481;-76
2023/01/21 09:03:45;;;;;;;0.30;0.30;;;;;;;;;;5001323;28;20034;-76
2023/01/21 09:06:10;;;;;;;0.30;0.30;;;;;;;;;;4998852;28;20049;-76
2023/01/21 09:08:36;;;;;;;0.25;0.25;;;;;;;;;;5006956;28;20023;-75
2023/01/21 09:11:02;;;;;;;0.40;0.40;;;;;;;;;;5002111;28;20029;-78
2023/01/21 09:13:28;;;;;;;0.30;0.30;;;;;;;;;;4998047;28;20033;-75
2023/01/21 09:15:53;;;;;;;0.30;0.30;;;;;;;;;;4993200;28;20037;-75
2023/01/21 09:18:18;;;;;;;0.30;0.30;;;;;;;;;;4998622;28;20448;-75
2023/01/21 09:20:43;;;;;;;0.30;0.30;;;;;;;;;;4997027;28;20036;-75
2023/01/21 09:23:24;;;;;;;0.30;0.30;;;;;;;;;;4996914;28;20022;-75
2023/01/21 09:25:53;;;;;;;0.38;0.38;;;;;;;;;;4993055;28;20028;-75
2023/01/21 09:28:19;;;;;;;0.35;0.35;;;;;;;;;;4996499;28;20408;-75
2023/01/21 09:30:44;;;;;;;0.30;0.30;;;;;;;;;;4998486;28;20037;-75
2023/01/21 09:33:10;;;;;;;0.32;0.32;;;;;;;;;;5008217;28;20873;-76
2023/01/21 09:35:35;;;;;;;0.40;0.40;;;;;;;;;;4999809;28;20465;-75
2023/01/21 09:38:00;;;;;;;0.30;0.30;;;;;;;;;;4995872;28;20385;-75
2023/01/21 09:40:25;;;;;;;0.25;0.25;;;;;;;;;;4995007;28;20026;-75
2023/01/21 09:42:51;;;;;;;0.40;0.40;;;;;;;;;;4991308;28;20402;-75
2023/01/21 09:45:17;;;;;;;0.30;0.30;;;;;;;;;;4987947;28;20026;-75
2023/01/21 09:47:43;;;;;;;0.30;0.30;;;;;;;;;;4995409;28;20026;-76
2023/01/21 09:50:08;;;;;;;0.30;0.30;;;;;;;;;;5009869;28;20554;-75
2023/01/21 09:52:39;;;;;;;0.40;0.40;;;;;;;;;;4993681;28;20026;-75
2023/01/21 09:55:05;;;;;;;0.30;0.30;;;;;;;;;;4999267;28;20737;-75
2023/01/21 09:57:43;;;;;;;0.30;0.30;;;;;;;;;;4995511;28;20496;-74
2023/01/21 10:00:23;;;;;;;0.30;0.30;;;;;;;;;;4991055;28;20033;-75
2023/01/21 10:02:58;;;;;;;0.30;0.30;;;;;;;;;;4993639;28;20476;-75
2023/01/21 10:05:23;;;;;;;0.30;0.30;;;;;;;;;;4996136;28;20022;-75
2023/01/21 10:07:59;;;;;;;0.30;0.30;;;;;;;;;;5003323;28;20408;-75
2023/01/21 10:10:24;;;;;;;0.30;0.30;;;;;;;;;;4996631;28;20282;-75
2023/01/21 10:12:50;;;;;;;0.30;0.30;;;;;;;;;;5001458;28;20439;-75
2023/01/21 10:15:25;;;;;;;0.20;0.20;;;;;;;;;;4998004;28;20280;-75
2023/01/21 10:17:54;;;;;;;0.30;0.30;;;;;;;;;;4997614;28;20021;-75
2023/01/21 10:20:22;;;;;;;0.30;0.30;;;;;;;;;;4995595;28;20101;-74
2023/01/21 10:22:51;;;;;;;0.30;0.30;;;;;;;;;;4996813;28;20021;-75
2023/01/21 10:25:19;;;;;;;0.30;0.30;;;;;;;;;;5004270;28;20632;-75
2023/01/21 10:27:44;;;;;;;0.30;0.30;;;;;;;;;;5004805;28;20042;-74
2023/01/21 10:30:33;;;;;;;0.30;0.30;;;;;;;;;;4998948;28;20061;-74
2023/01/21 10:32:58;;;;;;;0.30;0.30;;;;;;;;;;4996806;28;20097;-74
2023/01/21 10:35:37;;;;;;;0.28;0.28;;;;;;;;;;4998270;28;20034;-75
2023/01/21 10:38:02;;;;;;;0.30;0.30;;;;;;;;;;4999854;28;20064;-74
2023/01/21 10:40:42;;;;;;;0.22;0.22;;;;;;;;;;5009254;28;20029;-74
2023/01/21 10:43:13;;;;;;;0.28;0.28;;;;;;;;;;5011059;28;20258;-74
2023/01/21 10:45:44;;;;;;;0.30;0.30;;;;;;;;;;4994474;28;20101;-73
2023/01/21 10:48:16;;;;;;;0.20;0.20;;;;;;;;;;5002784;28;20412;-74
2023/01/21 10:50:49;;;;;;;0.30;0.30;;;;;;;;;;5007355;28;20042;-74
2023/01/21 10:53:15;;;;;;;0.30;0.30;;;;;;;;;;4999995;28;20109;-74
2023/01/21 10:55:49;;;;;;;0.30;0.30;;;;;;;;;;4986074;28;20354;-74
2023/01/21 10:58:21;;;;;;;0.30;0.30;;;;;;;;;;4996385;28;20370;-74
2023/01/21 11:00:47;;;;;;;0.30;0.30;;;;;;;;;;4996779;28;20588;-75
2023/01/21 11:03:15;;;;;;;0.28;0.28;;;;;;;;;;4994865;28;20034;-74
2023/01/21 11:05:40;;;;;;;0.20;0.20;;;;;;;;;;5000481;28;20058;-74
2023/01/21 11:08:06;;;;;;;0.20;0.20;;;;;;;;;;4993189;28;20563;-74
2023/01/21 11:10:32;;;;;;;0.10;0.10;;;;;;;;;;4992720;28;20026;-74
2023/01/21 11:12:57;;;;;;;0.20;0.20;;;;;;;;;;5002436;28;20030;-74
2023/01/21 11:15:23;;;;;;;0.20;0.20;;;;;;;;;;5005869;28;20031;-74
2023/01/21 11:17:50;;;;;;;0.10;0.10;;;;;;;;;;5009483;28;20148;-74
2023/01/21 11:20:19;;;;;;;0.20;0.20;;;;;;;;;;5006920;28;20048;-74
2023/01/21 11:22:45;;;;;;;0.10;0.10;;;;;;;;;;5003725;28;20026;-74
2023/01/21 11:25:28;;;;;;;0.15;0.15;;;;;;;;;;5005447;28;20017;-74
2023/01/21 11:27:54;;;;;;;0.10;0.10;;;;;;;;;;5007709;28;20108;-74
2023/01/21 11:30:30;;;;;;;0.10;0.10;;;;;;;;;;5008142;28;20802;-74
2023/01/21 11:33:14;;;;;;;0.10;0.10;;;;;;;;;;5005630;28;20384;-74
2023/01/21 11:35:39;;;;;;;0.20;0.20;;;;;;;;;;5001989;28;20028;-74
2023/01/21 11:38:05;;;;;;;0.10;0.10;;;;;;;;;;5002988;28;20033;-74
2023/01/21 11:40:30;;;;;;;0.20;0.20;;;;;;;;;;4998126;28;20018;-74
2023/01/21 11:42:55;;;;;;;0.10;0.10;;;;;;;;;;5000152;28;20032;-74
2023/01/21 11:45:27;;;;;;;0.10;0.10;;;;;;;;;;5001179;28;20432;-74
2023/01/21 11:47:52;;;;;;;0.10;0.10;;;;;;;;;;4997004;28;20551;-74
2023/01/21 11:50:34;;;;;;;0.15;0.15;;;;;;;;;;5004081;28;20033;-74
2023/01/21 11:53:05;;;;;;;0.10;0.10;;;;;;;;;;4997562;28;20029;-74
2023/01/21 11:55:33;;;;;;;0.10;0.10;;;;;;;;;;5001137;28;20384;-75
2023/01/21 11:57:58;;;;;;;0.10;0.10;;;;;;;;;;5000865;28;20103;-74
2023/01/21 12:00:25;;;;;;;0.10;0.10;;;;;;;;;;4996086;28;20100;-74
2023/01/21 12:02:52;;;;;;;0.10;0.10;;;;;;;;;;4993767;28;20290;-74
2023/01/21 12:05:31;;;;;;;0.10;0.10;;;;;;;;;;4997431;28;20049;-72
2023/01/21 12:07:57;;;;;;;0.10;0.10;;;;;;;;;;4999771;28;20089;-74
2023/01/21 12:10:24;;;;;;;0.10;0.10;;;;;;;;;;5001439;28;20646;-74
2023/01/21 12:13:02;;;;;;;0.10;0.10;;;;;;;;;;4998926;28;20026;-74
2023/01/21 12:15:27;;;;;;;0.10;0.10;;;;;;;;;;4999169;28;20025;-74
2023/01/21 12:18:04;;;;;;;0.03;0.03;;;;;;;;;;4999819;28;20022;-74
2023/01/21 12:20:38;;;;;;;0.10;0.10;;;;;;;;;;5005740;28;20068;-74
2023/01/21 12:23:22;;;;;;;0.10;0.10;;;;;;;;;;4998206;28;20464;-74
2023/01/21 12:25:58;;;;;;;0.10;0.10;;;;;;;;;;4998728;28;20033;-74
2023/01/21 12:28:42;;;;;;;0.10;0.10;;;;;;;;;;4998888;28;20029;-74
2023/01/21 12:31:28;;;;;;;0.00;0.00;;;;;;;;;;4998298;28;20046;-74
2023/01/21 12:33:57;;;;;;;0.10;0.10;;;;;;;;;;4997732;28;20140;-74
2023/01/21 12:36:35;;;;;;;0.10;0.10;;;;;;;;;;5003005;28;20532;-74
2023/01/21 12:39:06;;;;;;;0.00;0.00;;;;;;;;;;5003072;28;20075;-74
2023/01/21 12:41:33;;;;;;;0.10;0.10;;;;;;;;;;5000541;28;20484;-73
2023/01/21 12:44:21;;;;;;;0.10;0.10;;;;;;;;;;4999275;28;20082;-73
2023/01/21 12:46:48;;;;;;;0.10;0.10;;;;;;;;;;5004303;28;20018;-73
2023/01/21 12:49:24;;;;;;;0.10;0.10;;;;;;;;;;4999013;28;20076;-73
2023/01/21 12:52:01;;;;;;;0.10;0.10;;;;;;;;;;5000101;28;20025;-73
2023/01/21 12:54:26;;;;;;;0.10;0.10;;;;;;;;;;4999509;28;20037;-73
2023/01/21 12:56:58;;;;;;;0.10;0.10;;;;;;;;;;5003775;28;20029;-73
2023/01/21 12:59:26;;;;;;;0.10;0.10;;;;;;;;;;4999575;28;20673;-73
2023/01/21 13:02:04;;;;;;;0.10;0.10;;;;;;;;;;4997757;28;20030;-73
2023/01/21 13:04:43;;;;;;;0.10;0.10;;;;;;;;;;4996501;28;20285;-73
2023/01/21 13:07:27;;;;;;;0.10;0.10;;;;;;;;;;4999300;28;20022;-73
2023/01/21 13:10:14;;;;;;;0.10;0.10;;;;;;;;;;4996212;28;20025;-73
2023/01/21 13:12:39;;;;;;;0.20;0.20;;;;;;;;;;4999283;28;20026;-73
2023/01/21 13:15:16;;;;;;;0.20;0.20;;;;;;;;;;4998592;28;20737;-73
2023/01/21 13:17:43;;;;;;;0.10;0.10;;;;;;;;;;4998201;28;20414;-73
2023/01/21 13:20:12;;;;;;;0.20;0.20;;;;;;;;;;5014755;28;21363;-73
2023/01/21 13:22:41;;;;;;;0.20;0.20;;;;;;;;;;5003139;28;20224;-73
2023/01/21 13:25:15;;;;;;;0.20;0.20;;;;;;;;;;5002930;28;20021;-73
2023/01/21 13:27:40;;;;;;;;;;;;;;;;;;5005782;28;20025;-73
2023/01/21 13:30:05;;;;;;;0.20;0.20;;;;;;;;;;5005720;28;19929;-73
2023/01/21 13:32:33;;;;;;;0.20;0.20;;;;;;;;;;5001027;28;20375;-73
2023/01/21 13:34:58;;;;;;;0.20;0.20;;;;;;;;;;5001975;28;20125;-73
2023/01/21 13:37:26;;;;;;;0.17;0.17;;;;;;;;;;5001191;28;20492;-73
2023/01/21 13:40:13;;;;;;;0.10;0.10;;;;;;;;;;5004161;28;20025;-73
2023/01/21 13:42:49;;;;;;;0.10;0.10;;;;;;;;;;4999210;28;20030;-73
2023/01/21 13:45:32;;;;;;;0.10;0.10;;;;;;;;;;5000447;28;20512;-73
2023/01/21 13:48:07;;;;;;;0.15;0.15;;;;;;;;;;5003467;28;20030;-74
2023/01/21 13:50:48;;;;;;;0.10;0.10;;;;;;;;;;4999042;28;20327;-73
2023/01/21 13:53:40;;;;;;;0.10;0.10;;;;;;;;;;5002034;28;20482;-72
2023/01/21 13:56:14;;;;;;;0.10;0.10;;;;;;;;;;4997720;28;20575;-73
2023/01/21 13:58:43;;;;;;;0.20;0.20;;;;;;;;;;5000875;28;20071;-73
2023/01/21 14:01:11;;;;;;;0.10;0.10;;;;;;;;;;4996941;28;20745;-73
2023/01/21 14:03:47;;;;;;;0.20;0.20;;;;;;;;;;5002082;28;20038;-73
2023/01/21 14:06:19;;;;;;;0.20;0.20;;;;;;;;;;4996733;28;20276;-73
2023/01/21 14:08:47;;;;;;;0.20;0.20;;;;;;;;;;5001265;28;20071;-73
2023/01/21 14:11:30;;;;;;;0.10;0.10;;;;;;;;;;5002916;28;20571;-73
2023/01/21 14:13:55;;;;;;;0.20;0.20;;;;;;;;;;5004204;28;20029;-73
2023/01/21 14:16:30;;;;;;;0.10;0.10;;;;;;;;;;5000597;28;20498;-73
2023/01/21 14:19:01;;;;;;;0.10;0.10;;;;;;;;;;4992691;28;20263;-73
2023/01/21 14:21:38;;;;;;;0.10;0.10;;;;;;;;;;4994982;28;20056;-73
2023/01/21 14:24:03;;;;;;;0.10;0.10;;;;;;;;;;4997355;28;20462;-73
2023/01/21 14:26:28;;;;;;;0.10;0.10;;;;;;;;;;4997338;28;20484;-73
2023/01/21 14:28:53;;;;;;;0.20;0.20;;;;;;;;;;5004941;28;20275;-73
2023/01/21 14:31:20;;;;;;;0.20;0.20;;;;;;;;;;5003133;28;20400;-73
2023/01/21 14:33:46;;;;;;;0.10;0.10;;;;;;;;;;4994520;28;20294;-73
2023/01/21 14:36:21;;;;;;;0.10;0.10;;;;;;;;;;4999684;28;20025;-73
2023/01/21 14:38:58;;;;;;;0.10;0.10;;;;;;;;;;4999483;28;20035;-73
2023/01/21 14:41:23;;;;;;;0.20;0.20;;;;;;;;;;4997838;28;20104;-72
2023/01/21 14:43:49;;;;;;;0.10;0.10;;;;;;;;;;5002889;28;20452;-73
2023/01/21 14:46:22;;;;;;;0.10;0.10;;;;;;;;;;4993768;28;20021;-73
2023/01/21 14:49:07;;;;;;;0.10;0.10;;;;;;;;;;4994575;28;20065;-72
2023/01/21 14:51:37;;;;;;;0.10;0.10;;;;;;;;;;4997276;28;20023;-72
2023/01/21 14:54:13;;;;;;;0.10;0.10;;;;;;;;;;4999731;28;20132;-72
2023/01/21 14:56:39;;;;;;;0.20;0.20;;;;;;;;;;4996723;28;20088;-72
2023/01/21 14:59:23;;;;;;;0.10;0.10;;;;;;;;;;4995289;28;20556;-71